Time;durP1;ratioP1;P1;durP2;ratioP2;P2;SDS_P1;SDS_P2;PMS_P1;PMS_P2;Temp;Humidity;BMP_temperature;BMP_pressure;BME280_temperature;BME280_humidity;BME280_pressure;Samples;Min_cycle;Max_cycle;Signal;HPM_P1;HPM_P2
2022/01/15 00:01:50;;;;;;;18.20;11.05;;;;;;;0.14;85.76;97004.84;4967102;28;20047;-45
2022/01/15 00:04:17;;;;;;;19.42;11.55;;;;;;;0.26;83.81;97006.63;4971205;28;20058;-44
2022/01/15 00:06:48;;;;;;;18.33;11.07;;;;;;;0.29;83.74;97006.16;4972036;28;20039;-44
2022/01/15 00:09:16;;;;;;;17.73;11.15;;;;;;;0.47;82.91;97008.59;4969869;28;20460;-42
2022/01/15 00:11:44;;;;;;;18.27;11.55;;;;;;;0.35;82.02;97007.84;4963023;28;20063;-44
2022/01/15 00:14:15;;;;;;;20.95;11.30;;;;;;;0.31;82.36;97004.06;4971051;28;20097;-43
2022/01/15 00:16:55;;;;;;;18.70;10.93;;;;;;;0.24;82.35;97006.88;4970630;28;20054;-43
2022/01/15 00:19:34;;;;;;;19.48;10.73;;;;;;;0.27;82.61;97002.94;4960420;28;20050;-43
2022/01/15 00:22:01;;;;;;;18.30;10.63;;;;;;;0.14;83.88;97006.72;4963029;28;20035;-43
2022/01/15 00:24:28;;;;;;;18.95;11.20;;;;;;;-0.77;90.33;97003.88;4971628;28;20065;-42
2022/01/15 00:26:56;;;;;;;19.30;10.85;;;;;;;-1.36;93.38;96989.81;4970050;28;20051;-44
2022/01/15 00:29:23;;;;;;;18.55;11.43;;;;;;;-1.13;94.04;97002.28;4971363;28;20043;-48
2022/01/15 00:31:50;;;;;;;18.45;11.38;;;;;;;-0.72;90.54;96988.81;4958406;28;20059;-43
2022/01/15 00:34:17;;;;;;;17.60;10.93;;;;;;;-0.32;86.45;96996.03;4974197;28;20043;-43
2022/01/15 00:36:44;;;;;;;21.35;11.10;;;;;;;0.07;85.06;97004.19;4974394;28;20054;-44
2022/01/15 00:39:10;;;;;;;22.40;12.23;;;;;;;-0.26;87.45;97000.41;4969292;28;20081;-46
2022/01/15 00:41:37;;;;;;;19.27;11.35;;;;;;;0.16;84.50;96993.94;4974696;28;20061;-45
2022/01/15 00:44:05;;;;;;;20.13;12.00;;;;;;;-0.68;89.28;96996.31;4975530;28;20047;-42
2022/01/15 00:46:32;;;;;;;18.90;11.88;;;;;;;-0.20;85.24;96987.97;4975020;28;20043;-44
2022/01/15 00:48:59;;;;;;;20.70;13.15;;;;;;;-0.03;83.82;96988.06;4974284;28;20046;-42
2022/01/15 00:51:26;;;;;;;18.73;11.23;;;;;;;-0.84;88.88;96988.06;4973239;28;20057;-52
2022/01/15 00:53:53;;;;;;;18.73;11.35;;;;;;;-1.22;91.76;96989.34;4963845;28;20373;-41
2022/01/15 00:56:20;;;;;;;16.75;10.73;;;;;;;-1.25;92.37;96987.16;4974869;28;20061;-44
2022/01/15 00:58:47;;;;;;;17.02;10.68;;;;;;;-0.79;89.52;96990.00;4973923;28;20047;-47
2022/01/15 01:01:14;;;;;;;17.90;10.93;;;;;;;-0.38;87.48;96991.66;4972736;28;20051;-43
2022/01/15 01:03:41;;;;;;;20.42;11.68;;;;;;;-0.21;84.88;96994.34;4974925;28;20077;-47
2022/01/15 01:06:08;;;;;;;19.77;10.95;;;;;;;-0.03;83.54;96991.50;4974878;28;20051;-44
2022/01/15 01:08:35;;;;;;;20.77;11.00;;;;;;;-0.84;89.12;96996.03;4962753;28;20050;-43
2022/01/15 01:11:10;;;;;;;19.63;11.70;;;;;;;-0.84;90.75;96982.75;4974194;28;20046;-41
2022/01/15 01:24:46;;;;;;;18.42;11.60;;;;;;;-0.79;88.76;96990.81;4972276;28;20070;-44
2022/01/15 01:27:26;;;;;;;17.90;11.05;;;;;;;-1.66;93.24;96986.22;4974447;28;20500;-44
2022/01/15 01:33:17;;;;;;;21.75;10.90;;;;;;;-0.56;85.88;96968.69;4963888;28;20054;-41
2022/01/15 01:35:48;;;;;;;18.95;11.60;;;;;;;-1.12;89.83;96969.38;4960134;28;20522;-43
2022/01/15 01:38:27;;;;;;;19.95;12.18;;;;;;;-1.49;92.67;96969.63;4964838;28;20062;-40
2022/01/15 01:40:54;;;;;;;20.92;10.93;;;;;;;-0.77;88.87;96966.69;4954725;28;20457;-44
2022/01/15 01:45:54;;;;;;;20.77;11.75;;;;;;;-1.63;94.58;96957.56;4954768;28;20051;-50
2022/01/15 01:48:21;;;;;;;18.27;10.73;;;;;;;-2.02;96.21;96954.50;4958484;28;20098;-43
2022/01/15 01:50:48;;;;;;;20.65;12.07;;;;;;;-2.12;97.75;96953.22;4954801;28;20051;-45
2022/01/15 01:53:15;;;;;;;17.02;11.48;;;;;;;-1.72;96.79;96952.63;4967882;28;20082;-48
2022/01/15 01:55:42;;;;;;;21.35;11.93;;;;;;;-1.07;92.54;96950.88;4973723;28;20053;-46
2022/01/15 01:58:09;;;;;;;23.83;11.68;;;;;;;-1.00;92.41;96951.59;4973898;28;20049;-49
2022/01/15 02:00:36;;;;;;;19.02;11.30;;;;;;;-1.25;93.38;96944.66;4961670;28;20053;-48
2022/01/15 02:03:03;;;;;;;17.35;10.82;;;;;;;-1.62;94.20;96938.00;4970527;28;20420;-51
2022/01/15 02:05:30;;;;;;;20.10;11.82;;;;;;;-1.67;94.69;96941.31;4974303;28;20913;-51
2022/01/15 02:07:57;;;;;;;20.48;11.70;;;;;;;-1.93;94.82;96942.53;4973935;28;20054;-48
2022/01/15 02:10:24;;;;;;;18.92;11.98;;;;;;;-2.00;96.06;96928.59;4961850;28;20062;-47
2022/01/15 02:12:51;;;;;;;19.50;12.38;;;;;;;-1.99;96.29;96933.66;4973324;28;20496;-48
2022/01/15 02:15:20;;;;;;;20.17;12.90;;;;;;;-1.89;96.19;96931.25;4973528;28;20141;-48
2022/01/15 02:17:48;;;;;;;20.60;12.52;;;;;;;-1.08;89.96;96933.34;4974211;28;20075;-47
2022/01/15 02:20:34;;;;;;;17.83;11.50;;;;;;;-1.93;93.03;96916.81;4968790;28;20078;-49
2022/01/15 02:25:58;;;;;;;20.63;11.82;;;;;;;-0.93;87.66;96917.72;4961818;28;20453;-46
2022/01/15 02:28:31;;;;;;;21.67;12.07;;;;;;;-1.86;93.87;96919.38;4973391;28;20419;-48
2022/01/15 02:31:21;;;;;;;21.55;12.32;;;;;;;-1.07;89.23;96919.84;4972958;28;20047;-49
2022/01/15 02:33:51;;;;;;;21.80;11.73;;;;;;;-1.63;91.68;96910.63;4959981;28;20049;-51
2022/01/15 02:36:20;;;;;;;20.90;12.13;;;;;;;-1.95;93.55;96908.31;4971826;28;20043;-46
2022/01/15 02:38:48;;;;;;;18.45;11.90;;;;;;;-1.49;91.33;96906.72;4973386;28;20412;-47
2022/01/15 02:41:30;;;;;;;22.67;12.35;;;;;;;-1.96;93.03;96900.56;4963436;28;20485;-49
2022/01/15 02:43:59;;;;;;;23.80;12.80;;;;;;;-2.14;95.20;96907.56;4973120;28;20039;-46
2022/01/15 02:49:00;;;;;;;21.25;12.23;;;;;;;-2.13;94.05;96903.88;4971464;28;20039;-48
2022/01/15 02:51:30;;;;;;;20.58;12.65;;;;;;;-2.56;97.04;96900.66;4972009;28;20151;-47
2022/01/15 02:53:57;;;;;;;21.58;12.02;;;;;;;-2.25;95.73;96902.22;4972783;28;20149;-49
2022/01/15 02:56:26;;;;;;;22.05;12.68;;;;;;;-2.23;96.30;96897.53;4970830;28;20122;-50
2022/01/15 02:58:53;;;;;;;20.98;12.60;;;;;;;-1.91;95.54;96892.75;4972547;28;20130;-48
2022/01/15 03:01:21;;;;;;;20.63;12.63;;;;;;;-1.30;90.02;96890.63;4966502;28;20061;-45
2022/01/15 03:03:48;;;;;;;22.20;12.23;;;;;;;-1.49;89.84;96887.34;4972204;28;20035;-46
2022/01/15 03:06:18;;;;;;;22.50;13.07;;;;;;;-1.83;93.36;96876.47;4972589;28;20062;-47
2022/01/15 03:08:46;;;;;;;19.95;12.40;;;;;;;-1.07;89.70;96872.03;4966389;28;20046;-47
2022/01/15 03:11:13;;;;;;;21.50;12.57;;;;;;;-1.79;92.63;96871.50;4960806;28;20494;-48
2022/01/15 03:13:42;;;;;;;21.00;12.20;;;;;;;-1.76;94.43;96869.19;4972234;28;20051;-46
2022/01/15 03:16:13;;;;;;;21.38;13.00;;;;;;;-1.11;90.58;96864.75;4971673;28;20046;-44
2022/01/15 03:18:40;;;;;;;21.85;11.73;;;;;;;-2.18;94.59;96861.34;4972438;28;20047;-51
2022/01/15 03:21:07;;;;;;;19.52;11.35;;;;;;;-1.64;93.15;96861.25;4970983;28;20114;-47
2022/01/15 03:23:35;;;;;;;21.85;11.50;;;;;;;-2.65;95.17;96858.56;4958838;28;20047;-46
2022/01/15 03:26:02;;;;;;;18.95;11.75;;;;;;;-2.37;93.54;96852.66;4972179;28;20125;-42
2022/01/15 03:28:29;;;;;;;18.38;11.15;;;;;;;-2.92;95.53;96850.19;4972164;28;20046;-46
2022/01/15 03:30:56;;;;;;;20.20;11.77;;;;;;;-1.94;91.73;96854.22;4963797;28;20050;-42
2022/01/15 03:33:23;;;;;;;21.50;12.07;;;;;;;-1.63;88.59;96854.09;4968908;28;20074;-46
2022/01/15 03:35:50;;;;;;;20.55;11.88;;;;;;;-1.53;87.11;96862.28;4972164;28;20504;-40
2022/01/15 03:38:17;;;;;;;23.52;12.85;;;;;;;-1.34;86.56;96850.47;4972121;28;20043;-40
2022/01/15 03:40:44;;;;;;;22.10;11.98;;;;;;;-1.27;86.36;96853.84;4956746;28;20039;-56
2022/01/15 03:43:11;;;;;;;22.08;12.75;;;;;;;-1.07;86.16;96855.25;4972466;28;20504;-42
2022/01/15 03:45:38;;;;;;;23.88;12.43;;;;;;;-1.99;91.78;96842.69;4971165;28;20047;-41
2022/01/15 03:48:06;;;;;;;20.80;12.32;;;;;;;-2.39;95.48;96853.91;4968956;28;20046;-40
2022/01/15 03:50:32;;;;;;;20.98;12.63;;;;;;;-2.30;95.89;96843.81;4953468;28;20049;-40
2022/01/15 03:52:59;;;;;;;18.63;11.95;;;;;;;-2.13;94.09;96844.75;4966236;28;20061;-41
2022/01/15 03:55:26;;;;;;;22.30;12.05;;;;;;;-2.82;97.51;96852.28;4972712;28;20038;-44
2022/01/15 03:57:53;;;;;;;19.08;12.15;;;;;;;-2.30;96.69;96849.91;4972083;28;20107;-41
2022/01/15 04:00:24;;;;;;;20.90;11.85;;;;;;;-1.72;90.86;96843.84;4972209;28;20105;-47
2022/01/15 04:02:52;;;;;;;21.35;12.20;;;;;;;-2.48;95.40;96849.97;4969996;28;20138;-41
2022/01/15 04:05:19;;;;;;;20.08;11.93;;;;;;;-1.43;90.64;96847.41;4972050;28;20039;-41
2022/01/15 04:07:48;;;;;;;21.35;11.85;;;;;;;-1.86;90.75;96853.06;4973304;28;20555;-46
2022/01/15 04:10:15;;;;;;;21.13;11.70;;;;;;;-2.05;93.72;96848.91;4966138;28;20039;-41
2022/01/15 04:12:43;;;;;;;20.45;12.18;;;;;;;-2.45;94.01;96845.03;4972118;28;20074;-41
2022/01/15 04:15:13;;;;;;;22.83;12.05;;;;;;;-2.35;95.59;96847.94;4975622;28;20389;-41
2022/01/15 04:17:45;;;;;;;20.70;12.77;;;;;;;-2.76;97.29;96838.16;4974492;28;20432;-41
2022/01/15 04:20:16;;;;;;;19.73;12.23;;;;;;;-1.94;96.10;96853.41;4975131;28;20047;-41
2022/01/15 04:22:43;;;;;;;21.13;12.20;;;;;;;-2.54;96.01;96853.53;4970974;28;20122;-47
2022/01/15 04:25:10;;;;;;;20.63;13.20;;;;;;;-2.31;94.95;96845.63;4973647;28;20125;-40
2022/01/15 04:27:38;;;;;;;20.73;13.68;;;;;;;-2.25;95.69;96855.31;4976013;28;20050;-42
2022/01/15 04:30:07;;;;;;;21.48;12.60;;;;;;;-2.23;95.57;96855.91;4967910;28;20078;-43
2022/01/15 04:32:34;;;;;;;19.40;11.80;;;;;;;-2.18;93.93;96853.41;4963299;28;20046;-42
2022/01/15 04:35:01;;;;;;;21.83;13.50;;;;;;;-2.78;95.35;96844.72;4975691;28;20093;-41
2022/01/15 04:37:42;;;;;;;19.38;12.55;;;;;;;-2.19;93.42;96843.81;4975869;28;20047;-44
2022/01/15 04:40:11;;;;;;;24.13;13.25;;;;;;;-1.69;89.81;96850.50;4986677;28;20053;-42
2022/01/15 04:42:38;;;;;;;20.20;12.35;;;;;;;-1.92;90.87;96852.16;4962565;28;20404;-43
2022/01/15 04:45:07;;;;;;;20.35;12.07;;;;;;;-1.63;89.50;96849.59;4975618;28;20374;-47
2022/01/15 04:47:38;;;;;;;21.05;13.23;;;;;;;-1.39;87.85;96853.03;4972596;28;20117;-45
2022/01/15 04:50:08;;;;;;;20.65;12.75;;;;;;;-1.53;88.14;96849.00;4963280;28;20105;-42
2022/01/15 04:52:36;;;;;;;20.20;12.15;;;;;;;-1.90;89.75;96847.41;4973691;28;20508;-42
2022/01/15 04:55:05;;;;;;;19.42;12.02;;;;;;;-2.07;91.19;96846.50;4974387;28;20031;-42
2022/01/15 04:57:32;;;;;;;19.23;12.77;;;;;;;-2.52;93.34;96846.97;4975376;28;20138;-40
2022/01/15 04:59:59;;;;;;;26.20;13.05;;;;;;;-2.21;92.28;96837.13;4975019;28;20049;-45
2022/01/15 05:02:26;;;;;;;22.00;12.55;;;;;;;-1.74;88.47;96840.59;4965112;28;20042;-40
2022/01/15 05:04:53;;;;;;;22.45;13.13;;;;;;;-1.69;89.53;96840.72;4975267;28;20126;-44
2022/01/15 05:07:21;;;;;;;23.25;13.40;;;;;;;-1.77;90.73;96846.38;4975082;28;20047;-42
2022/01/15 05:09:49;;;;;;;21.70;12.95;;;;;;;-1.92;90.56;96848.66;4973419;28;20648;-43
2022/01/15 05:14:55;;;;;;;21.23;12.15;;;;;;;-2.60;95.77;96845.47;4975364;28;20551;-45
2022/01/15 05:17:22;;;;;;;19.98;13.05;;;;;;;-1.86;90.73;96853.06;4973998;28;20415;-48
2022/01/15 05:19:50;;;;;;;21.33;12.70;;;;;;;-2.33;93.04;96853.03;4988048;28;20502;-48
2022/01/15 05:22:17;;;;;;;21.58;13.15;;;;;;;-1.74;90.35;96845.91;4963900;28;20130;-46
2022/01/15 05:24:44;;;;;;;23.85;12.73;;;;;;;-1.33;87.19;96851.28;4975250;28;20441;-41
2022/01/15 05:27:11;;;;;;;22.70;13.23;;;;;;;-1.21;86.37;96844.91;5007827;23;20129;-43
2022/01/15 05:29:38;;;;;;;21.90;13.50;;;;;;;-1.20;85.93;96845.75;5000922;28;20129;-44
2022/01/15 05:32:05;;;;;;;26.65;13.95;;;;;;;-1.20;85.66;96846.53;4998445;28;20509;-45
2022/01/15 05:34:37;;;;;;;20.20;13.18;;;;;;;-1.17;85.53;96847.91;5011296;28;20041;-43
2022/01/15 05:37:05;;;;;;;23.45;13.60;;;;;;;-1.22;85.51;96843.31;4995869;28;20096;-46
2022/01/15 05:39:31;;;;;;;22.05;14.88;;;;;;;-1.39;87.83;96845.09;5012531;28;20050;-48
2022/01/15 05:41:58;;;;;;;23.80;14.93;;;;;;;-1.28;88.22;96844.25;4996463;28;20064;-45
2022/01/15 05:44:25;;;;;;;25.20;13.65;;;;;;;-1.20;86.70;96851.06;5006587;28;20130;-44
2022/01/15 05:46:52;;;;;;;22.75;13.18;;;;;;;-1.21;86.01;96850.22;5003151;28;20050;-47
2022/01/15 05:49:19;;;;;;;26.90;14.27;;;;;;;-1.27;86.31;96851.19;5013885;28;20399;-49
2022/01/15 05:51:46;;;;;;;25.17;14.07;;;;;;;-1.24;86.45;96853.34;5010774;28;20100;-47
2022/01/15 05:54:13;;;;;;;23.55;12.60;;;;;;;-1.16;86.14;96851.38;5013545;28;20050;-47
2022/01/15 05:56:40;;;;;;;23.58;14.00;;;;;;;-1.29;87.38;96849.78;5012519;28;20045;-48
2022/01/15 05:59:08;;;;;;;22.52;13.15;;;;;;;-1.38;88.19;96857.31;5013368;28;20041;-47
2022/01/15 06:01:37;;;;;;;24.25;13.63;;;;;;;-1.75;92.24;96860.22;5000255;28;20049;-49
2022/01/15 06:04:05;;;;;;;22.92;14.02;;;;;;;-1.48;89.59;96854.44;5010130;28;20046;-47
2022/01/15 06:06:32;;;;;;;25.55;13.63;;;;;;;-1.41;87.99;96855.91;5012402;28;20120;-49
2022/01/15 06:08:59;;;;;;;21.33;12.68;;;;;;;-1.45;87.93;96861.94;5013201;28;20049;-47
2022/01/15 06:11:27;;;;;;;21.58;12.57;;;;;;;-1.42;87.30;96854.31;5005052;28;20034;-49
2022/01/15 06:13:54;;;;;;;20.50;12.18;;;;;;;-1.45;87.51;96865.38;5013265;28;20070;-50
2022/01/15 06:16:23;;;;;;;22.98;11.80;;;;;;;-1.63;88.29;96857.56;5013171;28;20049;-50
2022/01/15 06:18:50;;;;;;;18.45;11.10;;;;;;;-1.62;88.14;96859.19;5012848;28;20188;-49
2022/01/15 06:21:18;;;;;;;19.75;12.60;;;;;;;-1.60;87.39;96849.13;5009380;28;20069;-51
2022/01/15 06:23:45;;;;;;;20.38;11.93;;;;;;;-1.53;87.12;96849.00;5011507;28;20048;-49
2022/01/15 06:26:12;;;;;;;19.90;12.00;;;;;;;-1.52;86.83;96855.94;5012030;28;20046;-49
2022/01/15 06:28:39;;;;;;;21.50;12.75;;;;;;;-1.54;87.09;96848.19;5011823;28;20233;-49
2022/01/15 06:31:06;;;;;;;19.33;11.85;;;;;;;-1.83;88.51;96855.25;5012661;28;20046;-50
2022/01/15 06:33:33;;;;;;;23.25;12.23;;;;;;;-2.10;90.38;96860.19;5009090;28;20399;-49
2022/01/15 06:36:00;;;;;;;22.63;12.07;;;;;;;-1.77;88.37;96869.44;5012948;28;20052;-48
2022/01/15 06:38:27;;;;;;;19.35;12.02;;;;;;;-1.76;87.39;96871.84;5012517;28;20499;-50
2022/01/15 06:40:54;;;;;;;23.35;11.73;;;;;;;-2.05;89.07;96859.50;5010091;28;20053;-51
2022/01/15 06:43:21;;;;;;;20.55;11.35;;;;;;;-1.99;88.81;96858.59;5003918;28;20129;-49
2022/01/15 06:45:48;;;;;;;21.77;12.30;;;;;;;-1.92;88.64;96867.22;5012359;28;20096;-49
2022/01/15 06:48:16;;;;;;;19.48;11.38;;;;;;;-2.08;89.17;96865.25;5012034;28;20045;-48
2022/01/15 06:50:43;;;;;;;17.70;10.98;;;;;;;-2.04;89.51;96872.53;4998681;28;20101;-48
2022/01/15 06:53:11;;;;;;;21.65;11.65;;;;;;;-2.12;89.73;96864.91;5009563;28;20491;-51
2022/01/15 06:55:38;;;;;;;18.35;10.95;;;;;;;-2.04;89.27;96869.09;5012682;28;20491;-49
2022/01/15 06:58:06;;;;;;;21.83;11.30;;;;;;;-2.07;89.20;96861.59;5010876;28;20488;-49
2022/01/15 07:00:32;;;;;;;25.38;12.55;;;;;;;-2.02;89.78;96859.03;5003098;28;20432;-51
2022/01/15 07:03:01;;;;;;;23.92;11.40;;;;;;;-2.07;91.47;96880.97;5010563;28;20069;-50
2022/01/15 07:05:28;;;;;;;49.25;11.50;;;;;;;-1.97;91.62;96872.44;5012173;28;20037;-49
2022/01/15 07:07:56;;;;;;;37.83;10.77;;;;;;;-1.58;90.22;96878.09;5011693;28;20045;-51
2022/01/15 07:10:23;;;;;;;33.53;10.73;;;;;;;-1.80;90.58;96878.66;4998220;28;20046;-50
2022/01/15 07:12:52;;;;;;;26.90;11.52;;;;;;;-1.75;90.08;96870.84;5006923;28;20450;-53
2022/01/15 07:15:19;;;;;;;50.75;12.02;;;;;;;-1.78;90.62;96876.59;5012501;28;20042;-49
2022/01/15 07:17:47;;;;;;;27.08;11.05;;;;;;;-1.73;90.35;96883.84;5007767;28;20072;-48
2022/01/15 07:20:16;;;;;;;21.77;11.20;;;;;;;-1.62;90.47;96882.25;5011673;28;20395;-48
2022/01/15 07:22:44;;;;;;;31.23;11.75;;;;;;;-1.54;89.96;96877.41;5006502;28;20050;-48
2022/01/15 07:25:11;;;;;;;26.27;12.05;;;;;;;-1.39;90.06;96884.91;5010003;28;20050;-51
2022/01/15 07:27:39;;;;;;;29.25;12.23;;;;;;;-1.34;89.27;96885.00;5010927;28;20042;-52
2022/01/15 07:30:08;;;;;;;20.92;10.70;;;;;;;-1.48;90.85;96883.63;5009961;28;20045;-51
2022/01/15 07:32:35;;;;;;;31.30;11.85;;;;;;;-1.77;94.05;96883.50;5007111;28;20410;-50
2022/01/15 07:35:03;;;;;;;30.70;11.75;;;;;;;-1.25;90.42;96885.44;5011467;28;20080;-52
2022/01/15 07:37:31;;;;;;;27.55;11.45;;;;;;;-1.30;92.24;96886.16;5011046;28;20080;-48
2022/01/15 07:39:59;;;;;;;31.48;11.27;;;;;;;-1.03;89.60;96875.03;5007705;28;20411;-51
2022/01/15 07:42:28;;;;;;;27.80;11.27;;;;;;;-1.04;88.82;96884.84;5003974;28;20042;-48
2022/01/15 07:44:55;;;;;;;34.40;11.68;;;;;;;-1.12;89.50;96876.44;4993983;28;20053;-50
2022/01/15 07:47:22;;;;;;;37.58;11.00;;;;;;;-1.10;88.86;96869.84;5010184;28;20073;-49
2022/01/15 07:49:49;;;;;;;27.67;11.93;;;;;;;-1.04;90.12;96886.66;5010825;28;20049;-50
2022/01/15 07:52:19;;;;;;;51.38;12.63;;;;;;;-1.30;91.37;96886.16;5005263;28;20134;-50
2022/01/15 07:54:46;;;;;;;25.15;10.95;;;;;;;-1.45;91.42;96885.81;5011439;28;20117;-50
2022/01/15 07:57:17;;;;;;;27.20;9.85;;;;;;;-1.60;93.39;96873.00;5011269;28;20523;-51
2022/01/15 07:59:44;;;;;;;23.02;9.73;;;;;;;-1.29;91.98;96873.69;4991302;28;20054;-47
2022/01/15 08:02:11;;;;;;;31.02;9.95;;;;;;;-1.44;93.30;96879.47;5008073;28;20077;-50
2022/01/15 08:04:38;;;;;;;24.17;9.30;;;;;;;-1.11;91.45;96870.88;5011256;28;20045;-46
2022/01/15 08:07:05;;;;;;;23.80;9.45;;;;;;;-1.04;91.50;96866.25;5011444;28;20450;-48
2022/01/15 08:09:32;;;;;;;22.13;9.52;;;;;;;-0.84;89.72;96865.84;4998345;28;20466;-49
2022/01/15 08:11:59;;;;;;;22.20;9.73;;;;;;;-0.96;89.72;96867.72;5011419;28;20038;-50
2022/01/15 08:14:26;;;;;;;26.58;9.63;;;;;;;-1.01;90.61;96867.59;5010899;28;20050;-47
2022/01/15 08:16:53;;;;;;;24.35;9.82;;;;;;;-1.18;91.96;96860.38;5009812;28;20044;-48
2022/01/15 08:19:20;;;;;;;25.52;9.65;;;;;;;-1.07;92.66;96857.91;5009616;28;20186;-47
2022/01/15 08:21:47;;;;;;;29.48;9.95;;;;;;;-0.86;91.50;96856.47;5007059;28;20057;-46
2022/01/15 08:24:14;;;;;;;19.83;9.65;;;;;;;-0.68;90.83;96856.31;5010324;28;20050;-46
2022/01/15 08:26:41;;;;;;;22.35;9.73;;;;;;;-0.65;90.74;96853.19;5010723;28;20143;-46
2022/01/15 08:29:08;;;;;;;26.90;11.30;;;;;;;-0.48;89.59;96848.69;5010617;28;20042;-47
2022/01/15 08:31:35;;;;;;;25.35;11.10;;;;;;;-0.53;89.24;96851.25;4991940;28;20595;-49
2022/01/15 08:34:02;;;;;;;22.95;12.10;;;;;;;-0.43;89.07;96849.81;5004683;28;20455;-48
2022/01/15 08:36:29;;;;;;;20.80;10.85;;;;;;;-0.22;88.19;96837.69;5009423;28;20053;-45
2022/01/15 08:38:56;;;;;;;23.63;11.52;;;;;;;-0.22;88.29;96829.72;4994990;28;20441;-45
2022/01/15 08:41:23;;;;;;;22.55;12.80;;;;;;;-0.18;87.19;96836.97;5011136;28;20042;-47
2022/01/15 08:43:50;;;;;;;21.50;11.73;;;;;;;-0.25;87.48;96834.47;5011155;28;20042;-48
2022/01/15 08:46:19;;;;;;;23.00;12.40;;;;;;;-0.25;86.99;96823.81;5008591;28;20105;-45
2022/01/15 08:48:46;;;;;;;26.55;13.27;;;;;;;-0.28;88.00;96829.63;4994767;28;20038;-46
2022/01/15 08:51:13;;;;;;;25.05;13.07;;;;;;;-0.26;87.48;96829.38;5001527;28;20051;-46
2022/01/15 08:53:40;;;;;;;21.83;12.55;;;;;;;-0.31;87.74;96824.78;5006202;28;20071;-47
2022/01/15 08:56:07;;;;;;;28.20;12.48;;;;;;;-0.36;88.28;96829.19;5014629;28;20038;-48
2022/01/15 08:58:35;;;;;;;27.02;15.23;;;;;;;-0.24;87.29;96825.44;5014609;28;20053;-48
2022/01/15 09:01:04;;;;;;;24.02;13.40;;;;;;;-0.28;87.38;96829.63;5003714;28;20133;-49
2022/01/15 09:03:33;;;;;;;24.85;13.80;;;;;;;-0.21;87.67;96815.38;5013743;28;20053;-49
2022/01/15 09:06:00;;;;;;;23.80;13.02;;;;;;;-0.18;87.65;96825.53;5014472;28;20042;-47
2022/01/15 09:08:28;;;;;;;22.58;12.80;;;;;;;-0.16;87.63;96823.41;5015065;28;20049;-45
2022/01/15 09:10:56;;;;;;;24.85;13.77;;;;;;;-0.16;87.56;96818.91;5012685;28;20823;-47
2022/01/15 09:13:23;;;;;;;24.23;13.77;;;;;;;-0.27;88.17;96819.78;5014286;28;20050;-47
2022/01/15 09:15:50;;;;;;;24.23;13.80;;;;;;;0.00;87.26;96817.31;5014252;28;20045;-46
2022/01/15 09:18:19;;;;;;;23.70;14.10;;;;;;;0.01;86.65;96812.78;5012238;28;20050;-46
2022/01/15 09:20:47;;;;;;;25.75;14.70;;;;;;;0.06;86.77;96824.28;4992746;28;20124;-47
2022/01/15 09:23:16;;;;;;;26.63;14.52;;;;;;;0.22;85.90;96820.00;5003402;28;20038;-46
2022/01/15 09:25:44;;;;;;;22.70;13.90;;;;;;;0.01;87.19;96818.09;5006025;28;20529;-46
2022/01/15 09:30:56;;;;;;;23.90;14.35;;;;;;;-0.18;88.61;96822.84;5013063;28;20034;-49
2022/01/15 09:33:23;;;;;;;26.20;15.30;;;;;;;-0.11;87.66;96810.19;5013065;28;20395;-46
2022/01/15 09:35:50;;;;;;;29.13;15.07;;;;;;;-0.05;86.96;96812.69;5004306;28;20409;-45
2022/01/15 09:38:17;;;;;;;24.17;14.25;;;;;;;-0.18;88.06;96821.00;5011319;28;20062;-46
2022/01/15 09:40:45;;;;;;;24.67;13.60;;;;;;;-0.28;88.70;96805.69;5004801;28;20053;-45
2022/01/15 09:43:14;;;;;;;23.58;14.10;;;;;;;-0.26;88.89;96813.41;4999266;28;20566;-45
2022/01/15 09:45:46;;;;;;;23.05;14.30;;;;;;;-0.39;89.77;96809.25;5009611;28;20050;-47
2022/01/15 09:48:15;;;;;;;23.25;14.18;;;;;;;-0.54;89.71;96811.63;5012790;28;20045;-46
2022/01/15 09:50:44;;;;;;;24.77;14.27;;;;;;;-0.51;89.44;96816.47;5010579;28;20141;-45
2022/01/15 09:53:16;;;;;;;23.30;14.65;;;;;;;-0.57;89.69;96812.91;5000254;28;20052;-46
2022/01/15 09:55:46;;;;;;;26.60;15.45;;;;;;;-0.22;88.67;96813.75;5005396;28;20074;-48
2022/01/15 09:58:13;;;;;;;24.60;15.32;;;;;;;-0.01;87.13;96810.34;5000101;28;20108;-50
2022/01/15 10:00:40;;;;;;;25.38;15.25;;;;;;;-0.03;87.59;96812.47;5011518;28;20048;-49
2022/01/15 10:03:07;;;;;;;26.85;15.75;;;;;;;-0.16;88.27;96805.63;4999415;28;20500;-46
2022/01/15 10:05:35;;;;;;;27.75;16.67;;;;;;;-0.38;89.14;96808.19;5003182;28;20404;-46
2022/01/15 10:08:01;;;;;;;33.35;17.70;;;;;;;-0.54;89.75;96809.78;4999726;28;20042;-46
2022/01/15 10:10:34;;;;;;;33.75;18.33;;;;;;;-0.65;90.64;96812.47;5007962;28;20054;-46
2022/01/15 10:13:19;;;;;;;35.70;17.63;;;;;;;-0.04;88.81;96808.97;5009028;28;20046;-49
2022/01/15 10:16:10;;;;;;;33.83;17.70;;;;;;;0.11;87.42;96805.75;5004155;28;20042;-48
2022/01/15 10:18:44;;;;;;;34.85;18.58;;;;;;;0.02;87.92;96804.53;5011879;28;20085;-47
2022/01/15 10:21:29;;;;;;;31.95;18.15;;;;;;;0.00;88.12;96796.03;5010499;28;20045;-45
2022/01/15 10:23:58;;;;;;;32.38;17.73;;;;;;;0.11;88.41;96797.78;5008177;28;20049;-46
2022/01/15 10:26:35;;;;;;;30.55;17.80;;;;;;;0.07;88.26;96788.66;5005325;28;20046;-45
2022/01/15 10:29:07;;;;;;;37.03;17.08;;;;;;;-0.73;91.76;96795.88;4998361;28;20140;-45
2022/01/15 10:31:44;;;;;;;34.30;17.75;;;;;;;-0.35;91.56;96786.44;5003040;28;20089;-52
2022/01/15 10:34:37;;;;;;;33.85;17.80;;;;;;;0.13;88.91;96790.34;5011431;28;20741;-47
2022/01/15 10:37:07;;;;;;;32.70;16.90;;;;;;;0.35;87.83;96782.38;5000919;28;20034;-50
2022/01/15 10:39:34;;;;;;;36.85;17.90;;;;;;;0.44;87.51;96780.13;5002431;28;20060;-48
2022/01/15 10:42:01;;;;;;;32.35;15.45;;;;;;;-0.54;90.52;96779.72;5010722;28;20053;-47
2022/01/15 10:44:37;;;;;;;30.52;14.48;;;;;;;-0.32;92.26;96770.00;5002627;28;20042;-48
2022/01/15 10:47:05;;;;;;;31.15;14.10;;;;;;;0.03;90.02;96768.91;5011684;28;20084;-50
2022/01/15 10:49:33;;;;;;;27.55;13.05;;;;;;;0.16;89.02;96763.25;5011970;28;20155;-49
2022/01/15 10:52:08;;;;;;;25.45;13.20;;;;;;;0.08;88.94;96761.00;4997298;28;20042;-47
2022/01/15 10:54:50;;;;;;;26.85;12.18;;;;;;;-0.42;93.29;96763.69;5008150;28;20425;-45
2022/01/15 10:57:19;;;;;;;28.05;13.48;;;;;;;-0.02;90.28;96761.66;5011820;28;20040;-47
2022/01/15 11:00:08;;;;;;;30.58;13.40;;;;;;;0.03;90.13;96752.94;5012170;28;20049;-47
2022/01/15 11:02:36;;;;;;;29.60;13.05;;;;;;;-0.13;90.75;96761.75;4996886;28;20038;-44
2022/01/15 11:05:25;;;;;;;28.75;13.45;;;;;;;-0.05;91.45;96756.03;5007354;28;20437;-46
2022/01/15 11:08:01;;;;;;;28.65;13.10;;;;;;;-0.66;94.06;96757.72;5010373;28;20045;-48
2022/01/15 11:10:35;;;;;;;32.85;12.95;;;;;;;0.09;91.57;96751.16;5004801;28;20477;-47
2022/01/15 11:13:06;;;;;;;32.08;14.10;;;;;;;0.24;91.47;96748.72;5009000;28;20061;-46
2022/01/15 11:15:34;;;;;;;36.20;14.25;;;;;;;0.38;90.83;96746.50;5001696;28;20141;-44
2022/01/15 11:18:03;;;;;;;32.75;14.75;;;;;;;0.15;92.63;96740.34;5001129;28;20511;-45
2022/01/15 11:20:32;;;;;;;31.67;13.18;;;;;;;0.31;92.14;96728.03;5001251;28;20046;-47
2022/01/15 11:23:02;;;;;;;29.00;12.70;;;;;;;0.53;91.35;96725.38;4995314;28;20050;-46
2022/01/15 11:25:30;;;;;;;33.67;14.60;;;;;;;0.61;90.51;96726.78;5005062;28;20165;-44
2022/01/15 11:27:57;;;;;;;31.80;14.18;;;;;;;0.64;89.78;96724.44;5001575;28;20042;-45
2022/01/15 11:30:25;;;;;;;31.73;14.55;;;;;;;0.67;90.46;96725.81;5004803;28;20147;-45
2022/01/15 11:32:54;;;;;;;33.38;14.75;;;;;;;0.36;91.38;96719.34;5009635;28;20156;-47
2022/01/15 11:35:37;;;;;;;40.90;15.65;;;;;;;0.24;92.04;96716.78;5006619;28;20068;-46
2022/01/15 11:38:05;;;;;;;37.75;14.52;;;;;;;0.27;92.62;96716.28;5003258;28;20046;-48
2022/01/15 11:40:33;;;;;;;35.90;15.65;;;;;;;0.38;92.37;96715.34;5009330;28;20057;-45
2022/01/15 11:43:26;;;;;;;46.78;15.90;;;;;;;-0.14;95.14;96718.38;4995142;28;20407;-45
2022/01/15 11:45:55;;;;;;;42.47;15.32;;;;;;;0.12;94.55;96714.22;4991590;28;20045;-46
2022/01/15 11:48:27;;;;;;;35.75;15.40;;;;;;;0.29;93.80;96713.38;5006380;28;20053;-47
2022/01/15 11:51:13;;;;;;;39.63;15.10;;;;;;;0.56;93.11;96708.91;5001494;28;20121;-47
2022/01/15 11:53:46;;;;;;;37.58;14.77;;;;;;;0.30;93.21;96709.66;5007589;28;20038;-47
2022/01/15 11:56:18;;;;;;;41.00;16.50;;;;;;;0.49;93.08;96705.66;5011182;28;20038;-46